createdAt,value
2023-05-21T00:00:47.203Z,39.03
2023-05-21T00:03:33.975Z,38.88
2023-05-21T00:06:21.262Z,39.08
2023-05-21T00:09:08.092Z,39.08
2023-05-21T00:11:54.287Z,39.22
2023-05-21T00:14:40.021Z,39.51
2023-05-21T00:17:26.293Z,39.42
2023-05-21T00:20:13.093Z,39.39
2023-05-21T00:23:05.353Z,39.45
2023-05-21T00:25:53.728Z,39.38
2023-05-21T00:28:39.804Z,39.48
2023-05-21T00:31:25.792Z,39.51
2023-05-21T00:34:13.867Z,39.65
2023-05-21T00:36:59.595Z,39.56
2023-05-21T00:39:45.656Z,39.73
2023-05-21T00:42:31.650Z,39.79
2023-05-21T00:45:18.284Z,39.87
2023-05-21T00:48:05.143Z,39.95
2023-05-21T00:50:51.079Z,39.98
2023-05-21T00:53:37.128Z,40.30
2023-05-21T00:56:24.236Z,39.92
2023-05-21T00:59:10.550Z,40.14
2023-05-21T01:01:57.356Z,40.26
2023-05-21T01:04:43.425Z,40.18
2023-05-21T01:07:29.487Z,40.70
2023-05-21T01:10:15.470Z,40.38
2023-05-21T01:13:01.662Z,40.65
2023-05-21T01:15:47.958Z,40.79
2023-05-21T01:18:44.452Z,40.88
2023-05-21T01:21:31.382Z,40.91
2023-05-21T01:24:18.199Z,40.96
2023-05-21T01:27:07.717Z,41.21
2023-05-21T01:29:53.994Z,41.03
2023-05-21T01:32:49.967Z,41.48
2023-05-21T01:36:24.490Z,41.52
2023-05-21T01:39:16.994Z,41.47
2023-05-21T01:42:04.379Z,41.52
2023-05-21T01:44:55.588Z,41.59
2023-05-21T01:47:42.463Z,41.45
2023-05-21T01:50:29.348Z,41.63
2023-05-21T01:53:15.926Z,41.50
2023-05-21T01:56:02.956Z,41.73
2023-05-21T01:58:50.266Z,41.64
2023-05-21T02:01:36.595Z,41.75
2023-05-21T02:04:22.773Z,41.83
2023-05-21T02:07:10.341Z,42.20
2023-05-21T02:09:56.564Z,41.88
2023-05-21T02:12:43.352Z,41.92
2023-05-21T02:16:01.839Z,42.97
2023-05-21T02:18:51.585Z,41.98
2023-05-21T02:21:37.743Z,42.10
2023-05-21T02:24:24.590Z,42.24
2023-05-21T02:27:10.743Z,42.08
2023-05-21T02:29:56.844Z,42.17
2023-05-21T02:32:43.839Z,42.26
2023-05-21T02:35:30.042Z,42.35
2023-05-21T02:38:19.584Z,42.29
2023-05-21T02:41:05.872Z,42.26
2023-05-21T02:43:51.779Z,42.32
2023-05-21T02:46:38.742Z,42.64
2023-05-21T02:49:26.171Z,42.43
2023-05-21T02:52:12.336Z,42.63
2023-05-21T02:54:59.568Z,42.55
2023-05-21T02:57:45.620Z,42.48
2023-05-21T03:00:31.766Z,42.55
2023-05-21T03:03:19.660Z,42.42
2023-05-21T03:06:05.930Z,42.49
2023-05-21T03:08:51.780Z,42.41
2023-05-21T03:11:40.437Z,42.68
2023-05-21T03:14:26.587Z,42.78
2023-05-21T03:17:14.208Z,42.73
2023-05-21T03:20:00.615Z,42.62
2023-05-21T03:22:46.772Z,42.85
2023-05-21T03:25:33.064Z,42.86
2023-05-21T03:28:19.331Z,43.00
2023-05-21T03:31:07.391Z,43.02
2023-05-21T03:34:12.460Z,42.95
2023-05-21T03:36:58.220Z,42.96
2023-05-21T03:39:45.965Z,43.08
2023-05-21T03:42:32.068Z,43.06
2023-05-21T03:45:18.288Z,43.21
2023-05-21T03:48:19.985Z,42.98
2023-05-21T03:51:11.010Z,43.10
2023-05-21T03:54:01.567Z,43.33
2023-05-21T03:56:47.711Z,43.16
2023-05-21T03:59:33.969Z,43.28
2023-05-21T04:02:22.283Z,43.17
2023-05-21T04:05:09.575Z,43.32
2023-05-21T04:08:22.016Z,43.21
2023-05-21T04:11:07.908Z,43.50
2023-05-21T04:13:55.826Z,43.35
2023-05-21T04:16:45.162Z,43.22
2023-05-21T04:19:34.185Z,43.30
2023-05-21T04:22:23.616Z,43.36
2023-05-21T04:28:31.882Z,43.55
2023-05-21T04:31:17.946Z,43.30
2023-05-21T04:34:04.386Z,43.41
2023-05-21T04:36:52.167Z,43.53
2023-05-21T04:39:38.522Z,43.43
2023-05-21T04:42:24.824Z,43.32
2023-05-21T04:45:11.991Z,43.42
2023-05-21T04:48:00.907Z,43.61
2023-05-21T04:50:48.728Z,43.50
2023-05-21T04:53:36.042Z,43.71
2023-05-21T04:56:26.659Z,43.78
2023-05-21T04:59:13.099Z,43.59
2023-05-21T05:01:59.291Z,43.56
2023-05-21T05:04:45.464Z,43.72
2023-05-21T05:07:31.746Z,43.67
2023-05-21T05:10:17.722Z,43.66
2023-05-21T05:13:04.047Z,43.80
2023-05-21T05:15:51.488Z,43.84
2023-05-21T05:18:44.332Z,44.06
2023-05-21T05:21:31.879Z,43.71
2023-05-21T05:24:18.979Z,43.81
2023-05-21T05:27:05.871Z,44.04
2023-05-21T05:29:52.139Z,43.79
2023-05-21T05:32:38.389Z,43.69
2023-05-21T05:35:24.431Z,43.63
2023-05-21T05:38:10.618Z,43.68
2023-05-21T05:40:56.639Z,43.42
2023-05-21T05:43:42.608Z,43.72
2023-05-21T05:46:29.570Z,43.62
2023-05-21T05:49:17.032Z,43.67
2023-05-21T05:52:03.710Z,43.58
2023-05-21T05:54:49.809Z,43.61
2023-05-21T05:57:36.102Z,43.58
2023-05-21T06:00:27.438Z,43.63
2023-05-21T06:03:20.195Z,43.68
2023-05-21T06:06:12.221Z,43.70
2023-05-21T06:08:58.747Z,43.75
2023-05-21T06:11:44.938Z,43.66
2023-05-21T06:14:31.092Z,43.58
2023-05-21T06:17:17.508Z,43.39
2023-05-21T06:20:04.336Z,43.80
2023-05-21T06:22:50.194Z,43.85
2023-05-21T06:25:38.353Z,43.78
2023-05-21T06:28:25.151Z,43.86
2023-05-21T06:31:44.160Z,43.74
2023-05-21T06:34:30.182Z,43.65
2023-05-21T06:37:20.118Z,43.65
2023-05-21T06:40:07.600Z,43.52
2023-05-21T06:42:53.819Z,43.54
2023-05-21T06:45:58.248Z,43.45
2023-05-21T06:48:56.148Z,43.26
2023-05-21T06:51:42.271Z,43.08
2023-05-21T06:54:30.165Z,43.09
2023-05-21T06:57:16.631Z,43.05
2023-05-21T07:00:03.149Z,42.96
2023-05-21T07:02:52.062Z,42.94
2023-05-21T07:05:38.807Z,42.86
2023-05-21T07:08:25.214Z,42.46
2023-05-21T07:11:11.161Z,42.48
2023-05-21T07:13:58.743Z,41.93
2023-05-21T07:16:45.156Z,42.05
2023-05-21T07:19:32.571Z,41.84
2023-05-21T07:22:19.248Z,41.47
2023-05-21T07:25:07.295Z,41.16
2023-05-21T07:27:53.403Z,41.16
2023-05-21T07:30:39.707Z,40.97
2023-05-21T07:33:29.949Z,40.70
2023-05-21T07:36:16.984Z,40.14
2023-05-21T07:39:04.281Z,40.29
2023-05-21T07:41:51.487Z,40.12
2023-05-21T07:44:37.802Z,39.93
2023-05-21T07:47:23.945Z,39.63
2023-05-21T07:50:11.663Z,39.51
2023-05-21T07:53:05.283Z,39.13
2023-05-21T07:55:54.065Z,39.18
2023-05-21T07:58:48.084Z,39.20
2023-05-21T08:01:37.717Z,38.77
2023-05-21T08:04:24.622Z,38.76
2023-05-21T08:07:13.090Z,38.36
2023-05-21T08:10:00.243Z,38.34
2023-05-21T08:12:48.245Z,38.01
2023-05-21T08:15:35.354Z,37.91
2023-05-21T08:18:24.216Z,37.82
2023-05-21T08:21:13.386Z,37.82
2023-05-21T08:24:00.770Z,37.54
2023-05-21T08:26:49.896Z,37.35
2023-05-21T08:29:38.424Z,37.40
2023-05-21T08:32:27.289Z,37.01
2023-05-21T08:35:14.350Z,37.05
2023-05-21T08:38:19.847Z,36.82
2023-05-21T08:41:27.156Z,37.03
2023-05-21T08:44:16.795Z,36.80
2023-05-21T08:47:08.685Z,36.68
2023-05-21T08:49:55.542Z,36.55
2023-05-21T08:52:42.785Z,36.57
2023-05-21T08:55:29.921Z,36.21
2023-05-21T08:58:16.785Z,36.45
2023-05-21T09:01:04.988Z,36.31
2023-05-21T09:03:59.071Z,36.18
2023-05-21T09:06:52.351Z,36.07
2023-05-21T09:10:05.504Z,36.03
2023-05-21T09:12:52.526Z,36.10
2023-05-21T09:15:39.547Z,36.09
2023-05-21T09:18:28.076Z,36.06
2023-05-21T09:21:28.076Z,35.85
2023-05-21T09:24:32.497Z,35.73
2023-05-21T09:27:20.319Z,35.74
2023-05-21T09:30:14.716Z,35.66
2023-05-21T09:33:02.071Z,35.47
2023-05-21T09:35:48.975Z,35.41
2023-05-21T09:38:36.155Z,35.32
2023-05-21T09:41:33.638Z,35.33
2023-05-21T09:44:20.953Z,35.18
2023-05-21T09:47:10.319Z,35.20
2023-05-21T09:50:01.318Z,34.98
2023-05-21T09:52:50.607Z,34.93
2023-05-21T09:55:37.265Z,34.85
2023-05-21T09:58:24.014Z,34.61
2023-05-21T10:01:11.620Z,34.54
2023-05-21T10:03:59.299Z,34.76
2023-05-21T10:06:48.052Z,34.63
2023-05-21T10:09:34.733Z,34.48
2023-05-21T10:12:24.261Z,34.25
2023-05-21T10:15:17.729Z,33.96
2023-05-21T10:18:07.041Z,33.97
2023-05-21T10:20:54.212Z,34.00
2023-05-21T10:23:42.041Z,33.90
2023-05-21T10:26:28.862Z,33.86
2023-05-21T10:29:18.172Z,33.80
2023-05-21T10:32:06.834Z,33.79
2023-05-21T10:34:59.386Z,33.78
2023-05-21T10:37:47.834Z,33.71
2023-05-21T10:40:36.448Z,33.68
2023-05-21T10:43:43.747Z,33.22
2023-05-21T10:47:00.843Z,33.09
2023-05-21T10:50:08.618Z,33.37
2023-05-21T10:53:25.666Z,33.41
2023-05-21T10:56:18.105Z,33.40
2023-05-21T10:59:22.186Z,33.30
2023-05-21T11:02:10.059Z,33.33
2023-05-21T11:05:04.195Z,33.29
2023-05-21T11:07:52.887Z,33.34
2023-05-21T11:10:40.883Z,33.11
2023-05-21T11:13:28.689Z,33.08
2023-05-21T11:16:16.107Z,32.93
2023-05-21T11:19:03.036Z,33.09
2023-05-21T11:21:52.036Z,33.05
2023-05-21T11:24:39.860Z,32.83
2023-05-21T11:27:38.061Z,32.83
2023-05-21T11:30:24.198Z,32.71
2023-05-21T11:33:11.423Z,32.85
2023-05-21T11:36:00.611Z,32.74
2023-05-21T11:39:15.334Z,32.11
2023-05-21T11:42:04.447Z,32.58
2023-05-21T11:44:50.820Z,32.40
2023-05-21T11:47:36.969Z,32.36
2023-05-21T11:50:23.528Z,32.37
2023-05-21T11:53:12.284Z,32.01
2023-05-21T11:55:59.906Z,32.07
2023-05-21T11:58:46.816Z,31.67
2023-05-21T12:01:32.709Z,31.36
2023-05-21T12:04:18.546Z,31.22
2023-05-21T12:07:08.188Z,31.00
2023-05-21T12:09:54.727Z,31.24
2023-05-21T12:12:54.005Z,31.08
2023-05-21T12:15:41.982Z,30.78
2023-05-21T12:18:28.320Z,30.51
2023-05-21T12:21:14.418Z,30.69
2023-05-21T12:24:03.520Z,30.34
2023-05-21T12:26:50.100Z,30.32
2023-05-21T12:29:38.384Z,29.94
2023-05-21T12:32:27.809Z,30.31
2023-05-21T12:35:24.376Z,29.52
2023-05-21T12:38:10.729Z,29.54
2023-05-21T12:41:03.503Z,29.71
2023-05-21T12:43:50.877Z,29.44
2023-05-21T12:46:37.266Z,29.41
2023-05-21T12:49:37.910Z,29.32
2023-05-21T12:52:24.608Z,29.84
2023-05-21T12:55:13.748Z,29.45
2023-05-21T12:58:08.418Z,29.65
2023-05-21T13:00:56.611Z,29.73
2023-05-21T13:03:43.267Z,29.33
2023-05-21T13:06:29.322Z,29.29
2023-05-21T13:09:15.760Z,29.43
2023-05-21T13:12:01.600Z,29.41
2023-05-21T13:14:47.976Z,29.57
2023-05-21T13:17:37.025Z,29.57
2023-05-21T13:20:26.606Z,29.35
2023-05-21T13:23:12.578Z,29.38
2023-05-21T13:25:58.720Z,29.46
2023-05-21T13:28:44.644Z,29.31
2023-05-21T13:31:30.463Z,29.51
2023-05-21T13:34:16.414Z,29.60
2023-05-21T13:37:02.634Z,29.55
2023-05-21T13:39:48.411Z,29.62
2023-05-21T13:42:35.307Z,29.11
2023-05-21T13:45:29.143Z,29.31
2023-05-21T13:48:15.226Z,28.90
2023-05-21T13:51:00.974Z,29.50
2023-05-21T13:53:46.777Z,29.47
2023-05-21T13:56:33.959Z,29.57
2023-05-21T13:59:19.767Z,29.51
2023-05-21T14:02:06.275Z,29.34
2023-05-21T14:04:52.511Z,29.13
2023-05-21T14:07:40.359Z,28.83
2023-05-21T14:10:26.588Z,29.05
2023-05-21T14:13:19.685Z,28.83
2023-05-21T14:16:07.732Z,28.93
2023-05-21T14:18:54.857Z,29.05
2023-05-21T14:21:41.122Z,29.02
2023-05-21T14:24:27.127Z,29.06
2023-05-21T14:27:15.244Z,29.28
2023-05-21T14:30:01.387Z,29.16
2023-05-21T14:32:47.935Z,29.25
2023-05-21T14:35:34.133Z,29.01
2023-05-21T14:38:19.955Z,28.93
2023-05-21T14:41:07.242Z,29.09
2023-05-21T14:43:53.467Z,28.86
2023-05-21T14:46:39.820Z,29.01
2023-05-21T14:49:26.018Z,29.07
2023-05-21T14:52:11.854Z,28.88
2023-05-21T14:54:57.981Z,28.80
2023-05-21T14:57:44.059Z,28.77
2023-05-21T15:00:31.195Z,28.80
2023-05-21T15:03:17.608Z,28.20
2023-05-21T15:06:03.894Z,28.04
2023-05-21T15:08:49.876Z,27.98
2023-05-21T15:11:36.097Z,27.75
2023-05-21T15:14:21.873Z,27.60
2023-05-21T15:17:07.921Z,27.40
2023-05-21T15:19:53.829Z,27.70
2023-05-21T15:22:40.456Z,27.69
2023-05-21T15:25:27.595Z,27.45
2023-05-21T15:28:13.580Z,27.48
2023-05-21T15:31:00.963Z,27.74
2023-05-21T15:33:46.825Z,27.52
2023-05-21T15:36:32.609Z,27.55
2023-05-21T15:39:18.470Z,27.74
2023-05-21T15:42:05.274Z,27.81
2023-05-21T15:44:51.156Z,27.87
2023-05-21T15:47:36.978Z,27.82
2023-05-21T15:50:22.780Z,27.82
2023-05-21T15:53:11.060Z,28.10
2023-05-21T15:55:57.215Z,27.91
2023-05-21T15:58:43.017Z,28.14
2023-05-21T16:01:30.035Z,28.03
2023-05-21T16:04:17.764Z,28.03
2023-05-21T16:07:04.275Z,28.11
2023-05-21T16:09:50.101Z,28.53
2023-05-21T16:12:36.206Z,28.74
2023-05-21T16:15:22.263Z,28.65
2023-05-21T16:18:09.966Z,28.55
2023-05-21T16:20:56.697Z,28.81
2023-05-21T16:23:42.739Z,28.66
2023-05-21T16:26:28.809Z,28.73
2023-05-21T16:29:15.129Z,28.54
2023-05-21T16:32:01.402Z,28.72
2023-05-21T16:34:47.596Z,28.80
2023-05-21T16:37:53.950Z,28.81
2023-05-21T16:40:42.813Z,28.87
2023-05-21T16:43:29.021Z,29.05
2023-05-21T16:46:24.211Z,29.08
2023-05-21T16:49:10.338Z,29.09
2023-05-21T16:51:56.515Z,29.13
2023-05-21T16:54:44.756Z,29.14
2023-05-21T16:57:31.694Z,29.26
2023-05-21T17:00:17.659Z,29.30
2023-05-21T17:03:04.225Z,29.46
2023-05-21T17:05:58.676Z,29.35
2023-05-21T17:08:44.922Z,29.55
2023-05-21T17:11:31.003Z,29.58
2023-05-21T17:14:32.635Z,29.72
2023-05-21T17:17:19.794Z,29.78
2023-05-21T17:20:07.885Z,29.96
2023-05-21T17:26:11.250Z,30.16
2023-05-21T17:28:57.177Z,30.26
2023-05-21T17:31:43.486Z,30.18
2023-05-21T17:34:30.453Z,30.25
2023-05-21T17:37:16.442Z,30.50
2023-05-21T17:40:02.707Z,30.48
2023-05-21T17:42:48.864Z,30.62
2023-05-21T17:45:36.322Z,30.55
2023-05-21T17:48:23.976Z,30.68
2023-05-21T17:51:10.308Z,30.79
2023-05-21T17:53:56.528Z,31.04
2023-05-21T17:56:44.197Z,31.17
2023-05-21T17:59:32.032Z,31.09
2023-05-21T18:02:18.233Z,31.16
2023-05-21T18:05:04.523Z,31.25
2023-05-21T18:07:50.713Z,31.37
2023-05-21T18:10:37.778Z,31.43
2023-05-21T18:13:23.978Z,31.54
2023-05-21T18:16:10.052Z,31.62
2023-05-21T18:18:56.536Z,31.75
2023-05-21T18:21:42.635Z,31.76
2023-05-21T18:24:28.637Z,31.80
2023-05-21T18:27:15.502Z,31.95
2023-05-21T18:30:05.155Z,31.89
2023-05-21T18:32:51.324Z,32.13
2023-05-21T18:35:37.178Z,32.04
2023-05-21T18:38:23.572Z,31.85
2023-05-21T18:41:09.442Z,32.02
2023-05-21T18:43:55.486Z,31.93
2023-05-21T18:46:42.434Z,32.12
2023-05-21T18:49:33.896Z,32.16
2023-05-21T18:52:19.845Z,31.95
2023-05-21T18:55:06.804Z,32.27
2023-05-21T18:57:52.870Z,32.34
2023-05-21T19:00:39.904Z,32.37
2023-05-21T19:03:26.742Z,32.45
2023-05-21T19:06:13.202Z,32.40
2023-05-21T19:09:00.041Z,32.52
2023-05-21T19:11:46.329Z,32.72
2023-05-21T19:14:32.578Z,32.95
2023-05-21T19:17:18.706Z,33.01
2023-05-21T19:20:05.522Z,32.91
2023-05-21T19:22:51.556Z,33.04
2023-05-21T19:25:38.772Z,33.20
2023-05-21T19:28:24.829Z,33.25
2023-05-21T19:31:11.005Z,33.25
2023-05-21T19:33:57.061Z,33.61
2023-05-21T19:36:52.974Z,33.61
2023-05-21T19:39:41.748Z,33.50
2023-05-21T19:42:27.921Z,33.46
2023-05-21T19:45:15.754Z,33.66
2023-05-21T19:48:02.242Z,34.01
2023-05-21T19:50:48.156Z,33.78
2023-05-21T19:53:35.029Z,33.83
2023-05-21T19:56:22.516Z,33.83
2023-05-21T19:59:09.012Z,33.97
2023-05-21T20:01:55.640Z,34.08
2023-05-21T20:04:42.026Z,34.17
2023-05-21T20:07:28.550Z,34.13
2023-05-21T20:10:14.933Z,34.31
2023-05-21T20:13:01.133Z,34.45
2023-05-21T20:15:50.472Z,34.58
2023-05-21T20:18:39.526Z,34.47
2023-05-21T20:21:28.447Z,34.51
2023-05-21T20:24:15.417Z,34.90
2023-05-21T20:27:03.393Z,34.72
2023-05-21T20:29:49.891Z,34.82
2023-05-21T20:32:36.481Z,34.86
2023-05-21T20:35:22.833Z,35.26
2023-05-21T20:38:09.014Z,35.43
2023-05-21T20:40:55.704Z,35.52
2023-05-21T20:43:45.518Z,35.46
2023-05-21T20:46:38.410Z,35.74
2023-05-21T20:49:25.854Z,35.59
2023-05-21T20:52:12.306Z,35.70
2023-05-21T20:54:59.680Z,35.88
2023-05-21T20:57:45.746Z,36.20
2023-05-21T21:00:33.491Z,36.33
2023-05-21T21:03:21.965Z,36.36
2023-05-21T21:06:09.941Z,36.74
2023-05-21T21:08:56.185Z,36.83
2023-05-21T21:11:42.092Z,36.68
2023-05-21T21:14:32.082Z,37.04
2023-05-21T21:17:18.374Z,37.06
2023-05-21T21:20:07.535Z,37.35
2023-05-21T21:22:53.389Z,37.43
2023-05-21T21:25:39.909Z,37.54
2023-05-21T21:28:26.175Z,37.64
2023-05-21T21:31:13.666Z,37.81
2023-05-21T21:33:59.517Z,37.75
2023-05-21T21:36:45.935Z,37.81
2023-05-21T21:39:31.741Z,38.01
2023-05-21T21:42:17.773Z,38.10
2023-05-21T21:45:04.816Z,38.09
2023-05-21T21:47:50.755Z,38.47
2023-05-21T21:50:37.478Z,38.32
2023-05-21T21:53:23.845Z,38.49
2023-05-21T21:56:09.709Z,38.47
2023-05-21T21:58:55.921Z,38.63
2023-05-21T22:01:42.990Z,38.65
2023-05-21T22:04:29.195Z,38.65
2023-05-21T22:07:17.943Z,38.80
2023-05-21T22:10:04.600Z,38.83
2023-05-21T22:12:50.364Z,38.82
2023-05-21T22:15:36.304Z,38.96
2023-05-21T22:18:38.826Z,39.31
2023-05-21T22:21:29.488Z,39.25
2023-05-21T22:24:30.965Z,39.19
2023-05-21T22:27:18.176Z,39.05
2023-05-21T22:30:05.223Z,39.07
2023-05-21T22:32:51.117Z,39.21
2023-05-21T22:35:37.023Z,39.11
2023-05-21T22:38:22.906Z,39.10
2023-05-21T22:41:10.724Z,39.19
2023-05-21T22:43:56.974Z,39.40
2023-05-21T22:46:43.957Z,39.47
2023-05-21T22:49:32.780Z,39.45
2023-05-21T22:52:21.723Z,39.76
2023-05-21T22:55:11.381Z,39.56
2023-05-21T22:57:57.374Z,39.70
2023-05-21T23:00:44.260Z,39.95
2023-05-21T23:03:30.458Z,39.81
2023-05-21T23:06:16.469Z,40.06
2023-05-21T23:09:02.077Z,39.77
2023-05-21T23:11:47.940Z,39.98
2023-05-21T23:14:33.855Z,40.06
2023-05-21T23:17:19.754Z,40.26
2023-05-21T23:20:09.459Z,40.06
2023-05-21T23:22:55.584Z,40.23
2023-05-21T23:25:41.626Z,40.07
2023-05-21T23:28:27.722Z,40.21
2023-05-21T23:31:13.783Z,40.21
2023-05-21T23:33:59.641Z,40.33
2023-05-21T23:36:45.769Z,40.30
2023-05-21T23:39:31.494Z,40.58
2023-05-21T23:42:17.608Z,40.48
2023-05-21T23:45:04.148Z,40.45
2023-05-21T23:47:50.295Z,40.65
2023-05-21T23:50:36.762Z,40.73
2023-05-21T23:53:22.880Z,40.60
2023-05-21T23:56:08.718Z,40.67
2023-05-21T23:58:54.881Z,40.86
